El Rito, NM (87530)

1:22 PM MDT on July 29, 2016 (GMT -0600)
Santa Fe Municipal | | Change Station
Active Advisory: Areal Flood Advisory

Elev 6345 ft 35.62 °N, 106.09 °W | Updated 29 minutes ago

Clear
Clear
88 °F
Feels Like 88 °F
N
22
Wind Variable Wind from SSE
Gusts 34 mph

Today
High -- | Low -- °F
--% Chance of Precip.
Yesterday
High -- | Low -- °F
Precip. -- in
Pressure 29.83 in
Visibility 10.0 miles
Clouds Clear
Dew Point 47 °F
Humidity 24%
Rainfall 0.00 in
Snow Depth Not available.
6:09 AM 8:12 PM
Waning Crescent, 19% visible
METAR KSAF 291853Z 16019G30KT 10SM CLR 31/08 A3022 RMK AO2 PK WND 16030/1846 LTG DSNT NW SLP102 T03110083
Pressure 29.83 in
Visibility 10.0 miles
Clouds Clear
Dew Point 47 °F
Humidity 24%
Rainfall 0.00 in
Snow Depth Not available.
6:09 AM 8:12 PM
Waning Crescent, 19% visible
METAR KSAF 291853Z 16019G30KT 10SM CLR 31/08 A3022 RMK AO2 PK WND 16030/1846 LTG DSNT NW SLP102 T03110083

10-Day Weather Forecast

Almanac

Astronomy

Jul. 29, 2016 Rise Set
Actual Time
Civil Twilight
Nautical Twilight
Astronomical Twilight
Moon
Length of Visible Light
Length of Day
Tomorrow will be .
, % of the Moon is Illuminated

Today's Extremes

State Highs State Lows

Community

WunderPhotos

Upload Photos

1,928,399 photos uploaded!

WunderBlog® & News

Nearby

Air Quality

  Air Quality AQ Index Pollutant
Not available.

Snow Depth

Station Depth Elevation

Earthquake Activity

City Distance Mag. Time & Date
Minimum magnitude displayed is 2.5.

Coastal Water Temperatures

Place Temperature

Stations

Nearby Weather Stations

Station Location Temp. Windchill Dew Point Humidity Wind Precip. Elev Updated Type
                   

Watches & Warnings

Areal Flood Advisory
Issued: 12:38 PM MDT Jul. 29, 2016 – National Weather Service

The National Weather Service in Albuquerque has issued a

* Arroyo and Small Stream Flood Advisory for...
northwestern Los Alamos County in north central New Mexico...
southeastern Rio Arriba County in north central New Mexico...
northwestern Santa Fe County in north central New Mexico...
east central Sandoval County in north central New Mexico...

* until 230 PM MDT

* at 1237 PM MDT... National Weather Service Doppler radar indicated
heavy rain due to thunderstorms. Over northern areas of the Las
Conchas burn scar up to one inch of rain has already fallen.

* Locations impacted include...
Los Alamos.

This will impact the Las Conchas burn scar including but not limited
to Los Alamos... Santa Clara Canyon... Rio del Oso...
Camp may Road... quemazan trail..Highway 4 from State Road 501
Junction to Las Conchas campground..Indian service Route 602
and eastern portion of Valles Caldera.

Precautionary/preparedness actions...

The heavy rainfall and slow movement of these storms may result in
flooding of Road intersections and low-lying areas. Waters may
begin to run in normally dry arroyos.


Lat... Lon 3593 10616 3589 10617 3583 10619 3590 10651
      3608 10651 3608 10621